sensor_id;sensor_type;location;lat;lon;timestamp;P1;durP1;ratioP1;P2;durP2;ratioP2
44476;SDS011;30180;44.788;10.366;2023-08-24T00:00:27;6.17;;;4.33;;
44476;SDS011;30180;44.788;10.366;2023-08-24T00:02:56;5.70;;;4.00;;
44476;SDS011;30180;44.788;10.366;2023-08-24T00:05:24;4.88;;;3.63;;
44476;SDS011;30180;44.788;10.366;2023-08-24T00:07:52;5.38;;;4.30;;
44476;SDS011;30180;44.788;10.366;2023-08-24T00:10:20;5.93;;;4.10;;
44476;SDS011;30180;44.788;10.366;2023-08-24T00:12:49;7.38;;;4.43;;
44476;SDS011;30180;44.788;10.366;2023-08-24T00:15:18;6.47;;;4.40;;
44476;SDS011;30180;44.788;10.366;2023-08-24T00:17:47;8.40;;;4.57;;
44476;SDS011;30180;44.788;10.366;2023-08-24T00:20:16;5.53;;;4.25;;
44476;SDS011;30180;44.788;10.366;2023-08-24T00:22:46;5.40;;;4.10;;
44476;SDS011;30180;44.788;10.366;2023-08-24T00:25:15;6.13;;;4.13;;
44476;SDS011;30180;44.788;10.366;2023-08-24T00:27:44;5.43;;;4.13;;
44476;SDS011;30180;44.788;10.366;2023-08-24T00:30:13;5.70;;;4.10;;
44476;SDS011;30180;44.788;10.366;2023-08-24T00:32:43;7.38;;;3.97;;
44476;SDS011;30180;44.788;10.366;2023-08-24T00:35:11;5.73;;;4.33;;
44476;SDS011;30180;44.788;10.366;2023-08-24T00:37:40;5.57;;;4.05;;
44476;SDS011;30180;44.788;10.366;2023-08-24T00:40:09;7.20;;;4.20;;
44476;SDS011;30180;44.788;10.366;2023-08-24T00:42:37;6.00;;;4.63;;
44476;SDS011;30180;44.788;10.366;2023-08-24T00:45:07;5.45;;;4.22;;
44476;SDS011;30180;44.788;10.366;2023-08-24T00:47:36;5.60;;;4.50;;
44476;SDS011;30180;44.788;10.366;2023-08-24T00:50:08;8.30;;;4.30;;
44476;SDS011;30180;44.788;10.366;2023-08-24T00:52:37;5.28;;;4.03;;
44476;SDS011;30180;44.788;10.366;2023-08-24T00:55:07;5.63;;;4.45;;
44476;SDS011;30180;44.788;10.366;2023-08-24T00:57:37;6.05;;;4.38;;
44476;SDS011;30180;44.788;10.366;2023-08-24T01:00:07;6.20;;;4.38;;
44476;SDS011;30180;44.788;10.366;2023-08-24T01:02:36;6.40;;;4.50;;
44476;SDS011;30180;44.788;10.366;2023-08-24T01:05:05;5.75;;;4.30;;
44476;SDS011;30180;44.788;10.366;2023-08-24T01:07:37;5.90;;;4.43;;
44476;SDS011;30180;44.788;10.366;2023-08-24T01:10:07;5.68;;;4.15;;
44476;SDS011;30180;44.788;10.366;2023-08-24T01:12:41;6.82;;;4.65;;
44476;SDS011;30180;44.788;10.366;2023-08-24T01:15:29;6.15;;;3.92;;
44476;SDS011;30180;44.788;10.366;2023-08-24T01:18:06;5.13;;;4.03;;
44476;SDS011;30180;44.788;10.366;2023-08-24T01:20:40;6.15;;;4.20;;
44476;SDS011;30180;44.788;10.366;2023-08-24T01:23:17;5.88;;;4.18;;
44476;SDS011;30180;44.788;10.366;2023-08-24T01:26:00;5.10;;;4.00;;
44476;SDS011;30180;44.788;10.366;2023-08-24T01:28:32;5.80;;;4.45;;
44476;SDS011;30180;44.788;10.366;2023-08-24T01:31:01;5.13;;;4.13;;
44476;SDS011;30180;44.788;10.366;2023-08-24T01:33:31;5.47;;;4.20;;
44476;SDS011;30180;44.788;10.366;2023-08-24T01:36:00;5.13;;;3.92;;
44476;SDS011;30180;44.788;10.366;2023-08-24T01:38:28;6.32;;;4.20;;
44476;SDS011;30180;44.788;10.366;2023-08-24T01:41:02;5.13;;;3.70;;
44476;SDS011;30180;44.788;10.366;2023-08-24T01:43:37;6.10;;;4.35;;
44476;SDS011;30180;44.788;10.366;2023-08-24T01:46:09;5.90;;;4.30;;
44476;SDS011;30180;44.788;10.366;2023-08-24T01:48:42;4.85;;;3.65;;
44476;SDS011;30180;44.788;10.366;2023-08-24T01:51:11;6.00;;;4.60;;
44476;SDS011;30180;44.788;10.366;2023-08-24T01:53:41;5.97;;;4.07;;
44476;SDS011;30180;44.788;10.366;2023-08-24T01:56:12;7.13;;;4.20;;
44476;SDS011;30180;44.788;10.366;2023-08-24T01:58:41;7.50;;;4.35;;
44476;SDS011;30180;44.788;10.366;2023-08-24T02:01:09;5.32;;;4.03;;
44476;SDS011;30180;44.788;10.366;2023-08-24T02:03:39;5.80;;;4.30;;
44476;SDS011;30180;44.788;10.366;2023-08-24T02:06:07;5.75;;;4.07;;
44476;SDS011;30180;44.788;10.366;2023-08-24T02:08:36;5.20;;;4.00;;
44476;SDS011;30180;44.788;10.366;2023-08-24T02:11:04;6.53;;;4.53;;
44476;SDS011;30180;44.788;10.366;2023-08-24T02:13:34;5.93;;;4.47;;
44476;SDS011;30180;44.788;10.366;2023-08-24T02:16:03;5.32;;;4.20;;
44476;SDS011;30180;44.788;10.366;2023-08-24T02:18:32;6.82;;;4.40;;
44476;SDS011;30180;44.788;10.366;2023-08-24T02:21:06;6.03;;;4.25;;
44476;SDS011;30180;44.788;10.366;2023-08-24T02:23:35;6.18;;;4.70;;
44476;SDS011;30180;44.788;10.366;2023-08-24T02:26:03;5.80;;;4.15;;
44476;SDS011;30180;44.788;10.366;2023-08-24T02:28:32;5.97;;;4.45;;
44476;SDS011;30180;44.788;10.366;2023-08-24T02:31:01;7.65;;;4.00;;
44476;SDS011;30180;44.788;10.366;2023-08-24T02:33:30;6.43;;;4.53;;
44476;SDS011;30180;44.788;10.366;2023-08-24T02:35:59;8.52;;;4.55;;
44476;SDS011;30180;44.788;10.366;2023-08-24T02:38:27;5.93;;;4.05;;
44476;SDS011;30180;44.788;10.366;2023-08-24T02:41:02;5.75;;;4.63;;
44476;SDS011;30180;44.788;10.366;2023-08-24T02:43:30;5.53;;;4.47;;
44476;SDS011;30180;44.788;10.366;2023-08-24T02:45:59;5.88;;;4.55;;
44476;SDS011;30180;44.788;10.366;2023-08-24T02:48:31;8.23;;;4.97;;
44476;SDS011;30180;44.788;10.366;2023-08-24T02:51:00;7.13;;;4.78;;
44476;SDS011;30180;44.788;10.366;2023-08-24T02:53:30;7.10;;;4.97;;
44476;SDS011;30180;44.788;10.366;2023-08-24T02:55:59;6.13;;;4.57;;
44476;SDS011;30180;44.788;10.366;2023-08-24T02:58:27;6.68;;;4.65;;
44476;SDS011;30180;44.788;10.366;2023-08-24T03:00:56;5.95;;;4.50;;
44476;SDS011;30180;44.788;10.366;2023-08-24T03:03:26;7.57;;;4.50;;
44476;SDS011;30180;44.788;10.366;2023-08-24T03:05:55;6.00;;;4.53;;
44476;SDS011;30180;44.788;10.366;2023-08-24T03:08:24;5.63;;;4.18;;
44476;SDS011;30180;44.788;10.366;2023-08-24T03:10:53;5.90;;;4.53;;
44476;SDS011;30180;44.788;10.366;2023-08-24T03:13:21;5.40;;;3.97;;
44476;SDS011;30180;44.788;10.366;2023-08-24T03:15:49;8.13;;;4.57;;
44476;SDS011;30180;44.788;10.366;2023-08-24T03:18:18;7.10;;;4.95;;
44476;SDS011;30180;44.788;10.366;2023-08-24T03:20:48;6.40;;;4.55;;
44476;SDS011;30180;44.788;10.366;2023-08-24T03:23:17;6.37;;;4.43;;
44476;SDS011;30180;44.788;10.366;2023-08-24T03:25:45;6.68;;;4.22;;
44476;SDS011;30180;44.788;10.366;2023-08-24T03:28:14;6.30;;;4.30;;
44476;SDS011;30180;44.788;10.366;2023-08-24T03:30:45;7.38;;;5.00;;
44476;SDS011;30180;44.788;10.366;2023-08-24T03:33:14;6.32;;;4.43;;
44476;SDS011;30180;44.788;10.366;2023-08-24T03:35:43;6.10;;;4.53;;
44476;SDS011;30180;44.788;10.366;2023-08-24T03:38:13;7.20;;;4.85;;
44476;SDS011;30180;44.788;10.366;2023-08-24T03:40:41;7.03;;;4.55;;
44476;SDS011;30180;44.788;10.366;2023-08-24T03:43:10;5.63;;;4.30;;
44476;SDS011;30180;44.788;10.366;2023-08-24T03:45:38;8.15;;;4.90;;
44476;SDS011;30180;44.788;10.366;2023-08-24T03:48:06;6.03;;;4.65;;
44476;SDS011;30180;44.788;10.366;2023-08-24T03:50:34;5.82;;;4.53;;
44476;SDS011;30180;44.788;10.366;2023-08-24T03:53:03;6.80;;;4.82;;
44476;SDS011;30180;44.788;10.366;2023-08-24T03:55:33;6.72;;;4.43;;
44476;SDS011;30180;44.788;10.366;2023-08-24T03:58:01;6.73;;;4.67;;
44476;SDS011;30180;44.788;10.366;2023-08-24T04:00:30;6.05;;;4.55;;
44476;SDS011;30180;44.788;10.366;2023-08-24T04:02:58;6.38;;;5.00;;
44476;SDS011;30180;44.788;10.366;2023-08-24T04:05:26;5.75;;;4.53;;
44476;SDS011;30180;44.788;10.366;2023-08-24T04:07:55;6.65;;;4.45;;
44476;SDS011;30180;44.788;10.366;2023-08-24T04:10:23;7.22;;;5.03;;
44476;SDS011;30180;44.788;10.366;2023-08-24T04:12:53;6.10;;;4.40;;
44476;SDS011;30180;44.788;10.366;2023-08-24T04:15:21;5.97;;;4.70;;
44476;SDS011;30180;44.788;10.366;2023-08-24T04:17:50;7.10;;;4.70;;
44476;SDS011;30180;44.788;10.366;2023-08-24T04:20:18;5.47;;;4.60;;
44476;SDS011;30180;44.788;10.366;2023-08-24T04:22:47;5.38;;;4.38;;
44476;SDS011;30180;44.788;10.366;2023-08-24T04:25:15;6.40;;;4.90;;
44476;SDS011;30180;44.788;10.366;2023-08-24T04:27:44;7.40;;;4.95;;
44476;SDS011;30180;44.788;10.366;2023-08-24T04:30:13;7.43;;;4.65;;
44476;SDS011;30180;44.788;10.366;2023-08-24T04:32:42;5.20;;;4.17;;
44476;SDS011;30180;44.788;10.366;2023-08-24T04:35:10;5.88;;;4.60;;
44476;SDS011;30180;44.788;10.366;2023-08-24T04:37:38;6.00;;;4.93;;
44476;SDS011;30180;44.788;10.366;2023-08-24T04:40:07;5.95;;;4.40;;
44476;SDS011;30180;44.788;10.366;2023-08-24T04:45:06;6.03;;;5.13;;
44476;SDS011;30180;44.788;10.366;2023-08-24T04:47:37;5.15;;;4.25;;
44476;SDS011;30180;44.788;10.366;2023-08-24T04:50:06;8.17;;;4.50;;
44476;SDS011;30180;44.788;10.366;2023-08-24T04:52:35;7.37;;;4.43;;
44476;SDS011;30180;44.788;10.366;2023-08-24T04:55:04;7.57;;;4.68;;
44476;SDS011;30180;44.788;10.366;2023-08-24T04:57:33;6.50;;;4.53;;
44476;SDS011;30180;44.788;10.366;2023-08-24T05:00:01;7.07;;;4.97;;
44476;SDS011;30180;44.788;10.366;2023-08-24T05:02:31;7.28;;;4.90;;
44476;SDS011;30180;44.788;10.366;2023-08-24T05:05:01;6.55;;;4.53;;
44476;SDS011;30180;44.788;10.366;2023-08-24T05:07:30;8.10;;;4.80;;
44476;SDS011;30180;44.788;10.366;2023-08-24T05:09:58;7.20;;;5.10;;
44476;SDS011;30180;44.788;10.366;2023-08-24T05:12:26;6.93;;;4.80;;
44476;SDS011;30180;44.788;10.366;2023-08-24T05:14:55;6.03;;;4.75;;
44476;SDS011;30180;44.788;10.366;2023-08-24T05:17:24;9.05;;;4.88;;
44476;SDS011;30180;44.788;10.366;2023-08-24T05:19:54;6.45;;;4.63;;
44476;SDS011;30180;44.788;10.366;2023-08-24T05:22:24;6.78;;;4.90;;
44476;SDS011;30180;44.788;10.366;2023-08-24T05:24:52;6.60;;;4.53;;
44476;SDS011;30180;44.788;10.366;2023-08-24T05:27:21;6.00;;;4.82;;
44476;SDS011;30180;44.788;10.366;2023-08-24T05:29:49;6.82;;;4.82;;
44476;SDS011;30180;44.788;10.366;2023-08-24T05:32:17;6.57;;;4.60;;
44476;SDS011;30180;44.788;10.366;2023-08-24T05:34:45;6.20;;;4.70;;
44476;SDS011;30180;44.788;10.366;2023-08-24T05:37:14;6.53;;;5.00;;
44476;SDS011;30180;44.788;10.366;2023-08-24T05:39:44;7.57;;;4.30;;
44476;SDS011;30180;44.788;10.366;2023-08-24T05:42:12;6.57;;;4.67;;
44476;SDS011;30180;44.788;10.366;2023-08-24T05:44:40;6.95;;;4.95;;
44476;SDS011;30180;44.788;10.366;2023-08-24T05:47:09;6.45;;;4.57;;
44476;SDS011;30180;44.788;10.366;2023-08-24T05:49:37;6.28;;;4.55;;
44476;SDS011;30180;44.788;10.366;2023-08-24T05:52:05;6.35;;;4.90;;
44476;SDS011;30180;44.788;10.366;2023-08-24T05:54:35;5.95;;;4.78;;
44476;SDS011;30180;44.788;10.366;2023-08-24T05:57:05;6.57;;;5.00;;
44476;SDS011;30180;44.788;10.366;2023-08-24T05:59:33;8.07;;;4.80;;
44476;SDS011;30180;44.788;10.366;2023-08-24T06:02:02;6.32;;;4.53;;
44476;SDS011;30180;44.788;10.366;2023-08-24T06:04:30;6.00;;;4.53;;
44476;SDS011;30180;44.788;10.366;2023-08-24T06:06:59;5.43;;;4.32;;
44476;SDS011;30180;44.788;10.366;2023-08-24T06:09:27;7.78;;;4.80;;
44476;SDS011;30180;44.788;10.366;2023-08-24T06:11:55;5.82;;;4.40;;
44476;SDS011;30180;44.788;10.366;2023-08-24T06:14:25;5.57;;;4.15;;
44476;SDS011;30180;44.788;10.366;2023-08-24T06:16:53;9.67;;;4.90;;
44476;SDS011;30180;44.788;10.366;2023-08-24T06:19:22;6.38;;;4.78;;
44476;SDS011;30180;44.788;10.366;2023-08-24T06:21:50;6.10;;;4.78;;
44476;SDS011;30180;44.788;10.366;2023-08-24T06:24:19;7.70;;;4.80;;
44476;SDS011;30180;44.788;10.366;2023-08-24T06:26:47;8.00;;;4.95;;
44476;SDS011;30180;44.788;10.366;2023-08-24T06:29:15;7.15;;;5.05;;
44476;SDS011;30180;44.788;10.366;2023-08-24T06:31:45;6.20;;;4.75;;
44476;SDS011;30180;44.788;10.366;2023-08-24T06:34:13;7.63;;;5.03;;
44476;SDS011;30180;44.788;10.366;2023-08-24T06:36:42;11.00;;;5.30;;
44476;SDS011;30180;44.788;10.366;2023-08-24T06:39:10;6.93;;;4.88;;
44476;SDS011;30180;44.788;10.366;2023-08-24T06:41:39;7.22;;;5.25;;
44476;SDS011;30180;44.788;10.366;2023-08-24T06:44:07;8.00;;;5.03;;
44476;SDS011;30180;44.788;10.366;2023-08-24T06:46:36;7.13;;;5.03;;
44476;SDS011;30180;44.788;10.366;2023-08-24T06:49:06;7.13;;;5.10;;
44476;SDS011;30180;44.788;10.366;2023-08-24T06:51:36;7.18;;;4.88;;
44476;SDS011;30180;44.788;10.366;2023-08-24T06:54:04;8.45;;;4.75;;
44476;SDS011;30180;44.788;10.366;2023-08-24T06:56:33;8.52;;;5.25;;
44476;SDS011;30180;44.788;10.366;2023-08-24T06:59:01;6.78;;;4.95;;
44476;SDS011;30180;44.788;10.366;2023-08-24T07:01:29;7.28;;;4.95;;
44476;SDS011;30180;44.788;10.366;2023-08-24T07:03:58;6.68;;;4.82;;
44476;SDS011;30180;44.788;10.366;2023-08-24T07:06:28;8.55;;;4.95;;
44476;SDS011;30180;44.788;10.366;2023-08-24T07:08:56;8.02;;;4.85;;
44476;SDS011;30180;44.788;10.366;2023-08-24T07:11:24;6.68;;;4.65;;
44476;SDS011;30180;44.788;10.366;2023-08-24T07:13:52;6.75;;;4.50;;
44476;SDS011;30180;44.788;10.366;2023-08-24T07:16:21;7.45;;;5.03;;
44476;SDS011;30180;44.788;10.366;2023-08-24T07:18:49;7.57;;;4.70;;
44476;SDS011;30180;44.788;10.366;2023-08-24T07:21:17;5.90;;;4.90;;
44476;SDS011;30180;44.788;10.366;2023-08-24T07:23:47;7.68;;;4.82;;
44476;SDS011;30180;44.788;10.366;2023-08-24T07:26:15;6.90;;;4.80;;
44476;SDS011;30180;44.788;10.366;2023-08-24T07:28:44;7.20;;;4.93;;
44476;SDS011;30180;44.788;10.366;2023-08-24T07:31:12;8.65;;;5.10;;
44476;SDS011;30180;44.788;10.366;2023-08-24T07:33:40;6.28;;;4.93;;
44476;SDS011;30180;44.788;10.366;2023-08-24T07:36:10;7.40;;;4.47;;
44476;SDS011;30180;44.788;10.366;2023-08-24T07:38:38;6.70;;;4.90;;
44476;SDS011;30180;44.788;10.366;2023-08-24T07:41:08;6.18;;;4.85;;
44476;SDS011;30180;44.788;10.366;2023-08-24T07:43:38;6.72;;;4.88;;
44476;SDS011;30180;44.788;10.366;2023-08-24T07:46:06;7.07;;;4.93;;
44476;SDS011;30180;44.788;10.366;2023-08-24T07:48:35;6.32;;;5.05;;
44476;SDS011;30180;44.788;10.366;2023-08-24T07:51:03;7.10;;;5.10;;
44476;SDS011;30180;44.788;10.366;2023-08-24T07:53:33;5.80;;;4.68;;
44476;SDS011;30180;44.788;10.366;2023-08-24T07:56:01;8.70;;;5.70;;
44476;SDS011;30180;44.788;10.366;2023-08-24T07:58:31;8.02;;;4.95;;
44476;SDS011;30180;44.788;10.366;2023-08-24T08:00:59;8.27;;;5.10;;
44476;SDS011;30180;44.788;10.366;2023-08-24T08:03:27;9.38;;;4.95;;
44476;SDS011;30180;44.788;10.366;2023-08-24T08:05:57;7.93;;;5.00;;
44476;SDS011;30180;44.788;10.366;2023-08-24T08:08:25;8.23;;;5.15;;
44476;SDS011;30180;44.788;10.366;2023-08-24T08:10:57;12.13;;;4.82;;
44476;SDS011;30180;44.788;10.366;2023-08-24T08:13:27;6.15;;;4.65;;
44476;SDS011;30180;44.788;10.366;2023-08-24T08:16:02;10.00;;;4.75;;
44476;SDS011;30180;44.788;10.366;2023-08-24T08:18:31;7.20;;;4.50;;
44476;SDS011;30180;44.788;10.366;2023-08-24T08:21:00;6.13;;;4.40;;
44476;SDS011;30180;44.788;10.366;2023-08-24T08:23:30;8.07;;;4.57;;
44476;SDS011;30180;44.788;10.366;2023-08-24T08:25:58;7.00;;;4.80;;
44476;SDS011;30180;44.788;10.366;2023-08-24T08:28:26;7.20;;;4.97;;
44476;SDS011;30180;44.788;10.366;2023-08-24T08:30:54;6.32;;;4.82;;
44476;SDS011;30180;44.788;10.366;2023-08-24T08:33:24;7.82;;;5.07;;
44476;SDS011;30180;44.788;10.366;2023-08-24T08:35:52;6.13;;;5.20;;
44476;SDS011;30180;44.788;10.366;2023-08-24T08:38:21;5.93;;;4.95;;
44476;SDS011;30180;44.788;10.366;2023-08-24T08:40:53;10.40;;;5.10;;
44476;SDS011;30180;44.788;10.366;2023-08-24T08:43:23;5.13;;;4.28;;
44476;SDS011;30180;44.788;10.366;2023-08-24T08:45:52;8.32;;;5.03;;
44476;SDS011;30180;44.788;10.366;2023-08-24T08:48:23;7.82;;;5.25;;
44476;SDS011;30180;44.788;10.366;2023-08-24T08:50:55;7.55;;;4.95;;
44476;SDS011;30180;44.788;10.366;2023-08-24T08:53:27;7.20;;;4.95;;
44476;SDS011;30180;44.788;10.366;2023-08-24T08:55:56;7.28;;;4.80;;
44476;SDS011;30180;44.788;10.366;2023-08-24T08:58:30;6.53;;;4.90;;
44476;SDS011;30180;44.788;10.366;2023-08-24T09:00:59;5.97;;;4.78;;
44476;SDS011;30180;44.788;10.366;2023-08-24T09:03:32;7.93;;;5.13;;
44476;SDS011;30180;44.788;10.366;2023-08-24T09:06:00;6.55;;;5.25;;
44476;SDS011;30180;44.788;10.366;2023-08-24T09:08:31;8.15;;;5.05;;
44476;SDS011;30180;44.788;10.366;2023-08-24T09:11:00;7.22;;;5.20;;
44476;SDS011;30180;44.788;10.366;2023-08-24T09:13:29;7.50;;;4.82;;
44476;SDS011;30180;44.788;10.366;2023-08-24T09:16:02;7.43;;;4.78;;
44476;SDS011;30180;44.788;10.366;2023-08-24T09:18:37;6.55;;;5.22;;
44476;SDS011;30180;44.788;10.366;2023-08-24T09:21:09;6.80;;;4.97;;
44476;SDS011;30180;44.788;10.366;2023-08-24T09:23:39;6.53;;;4.60;;
44476;SDS011;30180;44.788;10.366;2023-08-24T09:26:12;7.63;;;5.32;;
44476;SDS011;30180;44.788;10.366;2023-08-24T09:28:42;10.65;;;5.60;;
44476;SDS011;30180;44.788;10.366;2023-08-24T09:31:11;8.40;;;5.57;;
44476;SDS011;30180;44.788;10.366;2023-08-24T09:33:43;7.50;;;5.00;;
44476;SDS011;30180;44.788;10.366;2023-08-24T09:36:13;7.95;;;5.60;;
44476;SDS011;30180;44.788;10.366;2023-08-24T09:38:46;7.57;;;5.10;;
44476;SDS011;30180;44.788;10.366;2023-08-24T09:41:16;7.53;;;5.20;;
44476;SDS011;30180;44.788;10.366;2023-08-24T09:43:44;8.38;;;5.05;;
44476;SDS011;30180;44.788;10.366;2023-08-24T09:46:12;8.52;;;5.32;;
44476;SDS011;30180;44.788;10.366;2023-08-24T09:48:54;9.30;;;5.50;;
44476;SDS011;30180;44.788;10.366;2023-08-24T09:51:24;8.95;;;5.90;;
44476;SDS011;30180;44.788;10.366;2023-08-24T09:53:56;8.60;;;5.50;;
44476;SDS011;30180;44.788;10.366;2023-08-24T09:56:25;6.05;;;4.80;;
44476;SDS011;30180;44.788;10.366;2023-08-24T09:58:56;9.70;;;5.93;;
44476;SDS011;30180;44.788;10.366;2023-08-24T10:01:27;8.63;;;5.15;;
44476;SDS011;30180;44.788;10.366;2023-08-24T10:03:58;7.75;;;5.18;;
44476;SDS011;30180;44.788;10.366;2023-08-24T10:06:27;8.02;;;4.97;;
44476;SDS011;30180;44.788;10.366;2023-08-24T10:08:57;8.27;;;5.50;;
44476;SDS011;30180;44.788;10.366;2023-08-24T10:11:30;7.82;;;5.45;;
44476;SDS011;30180;44.788;10.366;2023-08-24T10:14:04;8.05;;;5.38;;
44476;SDS011;30180;44.788;10.366;2023-08-24T10:16:36;7.55;;;5.35;;
44476;SDS011;30180;44.788;10.366;2023-08-24T10:21:36;7.82;;;5.65;;
44476;SDS011;30180;44.788;10.366;2023-08-24T10:24:06;7.53;;;5.20;;
44476;SDS011;30180;44.788;10.366;2023-08-24T10:26:36;6.97;;;4.95;;
44476;SDS011;30180;44.788;10.366;2023-08-24T10:29:06;7.70;;;4.97;;
44476;SDS011;30180;44.788;10.366;2023-08-24T10:31:35;7.47;;;5.25;;
44476;SDS011;30180;44.788;10.366;2023-08-24T10:34:05;6.85;;;5.30;;
44476;SDS011;30180;44.788;10.366;2023-08-24T10:36:37;7.95;;;5.30;;
44476;SDS011;30180;44.788;10.366;2023-08-24T10:39:06;8.30;;;5.50;;
44476;SDS011;30180;44.788;10.366;2023-08-24T10:41:46;11.95;;;5.85;;
44476;SDS011;30180;44.788;10.366;2023-08-24T10:44:21;8.15;;;5.80;;
44476;SDS011;30180;44.788;10.366;2023-08-24T10:47:07;8.10;;;5.82;;
44476;SDS011;30180;44.788;10.366;2023-08-24T10:49:39;9.07;;;5.50;;
44476;SDS011;30180;44.788;10.366;2023-08-24T10:52:20;7.03;;;5.50;;
44476;SDS011;30180;44.788;10.366;2023-08-24T10:54:49;8.88;;;5.85;;
44476;SDS011;30180;44.788;10.366;2023-08-24T10:57:19;7.03;;;5.60;;
44476;SDS011;30180;44.788;10.366;2023-08-24T11:02:26;7.50;;;5.50;;
44476;SDS011;30180;44.788;10.366;2023-08-24T11:05:04;8.10;;;5.63;;
44476;SDS011;30180;44.788;10.366;2023-08-24T11:07:54;8.00;;;5.32;;
44476;SDS011;30180;44.788;10.366;2023-08-24T11:10:24;8.40;;;5.03;;
44476;SDS011;30180;44.788;10.366;2023-08-24T11:15:50;7.57;;;5.78;;
44476;SDS011;30180;44.788;10.366;2023-08-24T11:18:24;8.18;;;6.07;;
44476;SDS011;30180;44.788;10.366;2023-08-24T11:20:54;6.50;;;4.93;;
44476;SDS011;30180;44.788;10.366;2023-08-24T11:23:24;7.35;;;5.60;;
44476;SDS011;30180;44.788;10.366;2023-08-24T11:25:54;6.57;;;5.10;;
44476;SDS011;30180;44.788;10.366;2023-08-24T11:28:24;9.32;;;5.75;;
44476;SDS011;30180;44.788;10.366;2023-08-24T11:30:53;7.80;;;5.18;;
44476;SDS011;30180;44.788;10.366;2023-08-24T11:33:26;11.45;;;5.05;;
44476;SDS011;30180;44.788;10.366;2023-08-24T11:35:56;8.77;;;5.50;;
44476;SDS011;30180;44.788;10.366;2023-08-24T11:38:36;7.22;;;5.40;;
44476;SDS011;30180;44.788;10.366;2023-08-24T11:41:15;8.40;;;5.50;;
44476;SDS011;30180;44.788;10.366;2023-08-24T11:43:45;7.60;;;5.10;;
44476;SDS011;30180;44.788;10.366;2023-08-24T11:46:15;8.03;;;5.50;;
44476;SDS011;30180;44.788;10.366;2023-08-24T11:48:44;8.98;;;5.30;;
44476;SDS011;30180;44.788;10.366;2023-08-24T11:51:12;6.15;;;4.63;;
44476;SDS011;30180;44.788;10.366;2023-08-24T11:53:53;7.70;;;5.18;;
44476;SDS011;30180;44.788;10.366;2023-08-24T11:56:24;7.97;;;5.10;;
44476;SDS011;30180;44.788;10.366;2023-08-24T11:58:54;8.25;;;5.75;;
44476;SDS011;30180;44.788;10.366;2023-08-24T12:01:22;8.38;;;5.50;;
44476;SDS011;30180;44.788;10.366;2023-08-24T12:03:53;6.63;;;4.95;;
44476;SDS011;30180;44.788;10.366;2023-08-24T12:06:22;5.93;;;4.82;;
44476;SDS011;30180;44.788;10.366;2023-08-24T12:08:56;9.00;;;5.18;;
44476;SDS011;30180;44.788;10.366;2023-08-24T12:11:25;7.10;;;5.13;;
44476;SDS011;30180;44.788;10.366;2023-08-24T12:13:54;7.18;;;5.15;;
44476;SDS011;30180;44.788;10.366;2023-08-24T12:16:22;7.25;;;5.10;;
44476;SDS011;30180;44.788;10.366;2023-08-24T12:18:52;7.63;;;5.35;;
44476;SDS011;30180;44.788;10.366;2023-08-24T12:21:21;6.50;;;4.55;;
44476;SDS011;30180;44.788;10.366;2023-08-24T12:23:58;7.95;;;5.07;;
44476;SDS011;30180;44.788;10.366;2023-08-24T12:26:27;7.93;;;5.13;;
44476;SDS011;30180;44.788;10.366;2023-08-24T12:28:59;6.97;;;4.85;;
44476;SDS011;30180;44.788;10.366;2023-08-24T12:31:29;6.78;;;4.80;;
44476;SDS011;30180;44.788;10.366;2023-08-24T12:33:59;6.63;;;4.70;;
44476;SDS011;30180;44.788;10.366;2023-08-24T12:36:30;8.27;;;5.00;;
44476;SDS011;30180;44.788;10.366;2023-08-24T12:39:00;7.63;;;4.93;;
44476;SDS011;30180;44.788;10.366;2023-08-24T12:41:30;7.88;;;5.10;;
44476;SDS011;30180;44.788;10.366;2023-08-24T12:43:58;5.68;;;4.63;;
44476;SDS011;30180;44.788;10.366;2023-08-24T12:46:31;7.10;;;4.90;;
44476;SDS011;30180;44.788;10.366;2023-08-24T12:49:00;7.93;;;5.05;;
44476;SDS011;30180;44.788;10.366;2023-08-24T12:51:29;6.95;;;4.70;;
44476;SDS011;30180;44.788;10.366;2023-08-24T12:53:57;6.85;;;5.03;;
44476;SDS011;30180;44.788;10.366;2023-08-24T12:56:27;6.25;;;4.80;;
44476;SDS011;30180;44.788;10.366;2023-08-24T12:58:55;7.40;;;4.53;;
44476;SDS011;30180;44.788;10.366;2023-08-24T13:01:23;7.13;;;5.20;;
44476;SDS011;30180;44.788;10.366;2023-08-24T13:03:51;5.90;;;4.60;;
44476;SDS011;30180;44.788;10.366;2023-08-24T13:06:20;6.65;;;5.05;;
44476;SDS011;30180;44.788;10.366;2023-08-24T13:08:50;6.18;;;4.78;;
44476;SDS011;30180;44.788;10.366;2023-08-24T13:11:20;6.57;;;4.57;;
44476;SDS011;30180;44.788;10.366;2023-08-24T13:13:50;7.22;;;4.55;;
44476;SDS011;30180;44.788;10.366;2023-08-24T13:16:18;6.00;;;4.50;;
44476;SDS011;30180;44.788;10.366;2023-08-24T13:18:47;8.90;;;4.25;;
44476;SDS011;30180;44.788;10.366;2023-08-24T13:21:15;6.75;;;4.50;;
44476;SDS011;30180;44.788;10.366;2023-08-24T13:23:44;6.88;;;4.68;;
44476;SDS011;30180;44.788;10.366;2023-08-24T13:26:16;7.05;;;4.55;;
44476;SDS011;30180;44.788;10.366;2023-08-24T13:28:46;5.93;;;4.53;;
44476;SDS011;30180;44.788;10.366;2023-08-24T13:31:16;6.30;;;4.40;;
44476;SDS011;30180;44.788;10.366;2023-08-24T13:33:46;7.63;;;4.47;;
44476;SDS011;30180;44.788;10.366;2023-08-24T13:36:14;5.10;;;4.13;;
44476;SDS011;30180;44.788;10.366;2023-08-24T13:38:43;6.43;;;4.68;;
44476;SDS011;30180;44.788;10.366;2023-08-24T13:41:12;7.35;;;4.88;;
44476;SDS011;30180;44.788;10.366;2023-08-24T13:43:40;7.10;;;4.90;;
44476;SDS011;30180;44.788;10.366;2023-08-24T13:46:08;7.57;;;4.40;;
44476;SDS011;30180;44.788;10.366;2023-08-24T13:48:38;6.88;;;4.80;;
44476;SDS011;30180;44.788;10.366;2023-08-24T13:51:07;6.60;;;4.60;;
44476;SDS011;30180;44.788;10.366;2023-08-24T13:53:35;6.03;;;4.45;;
44476;SDS011;30180;44.788;10.366;2023-08-24T13:56:04;5.25;;;3.75;;
44476;SDS011;30180;44.788;10.366;2023-08-24T13:58:32;6.15;;;4.25;;
44476;SDS011;30180;44.788;10.366;2023-08-24T14:01:01;5.50;;;4.22;;
44476;SDS011;30180;44.788;10.366;2023-08-24T14:03:30;7.53;;;4.53;;
44476;SDS011;30180;44.788;10.366;2023-08-24T14:06:00;6.15;;;4.13;;
44476;SDS011;30180;44.788;10.366;2023-08-24T14:08:28;7.22;;;4.32;;
44476;SDS011;30180;44.788;10.366;2023-08-24T14:10:57;6.65;;;4.70;;
44476;SDS011;30180;44.788;10.366;2023-08-24T14:13:25;7.15;;;4.15;;
44476;SDS011;30180;44.788;10.366;2023-08-24T14:15:53;6.97;;;4.38;;
44476;SDS011;30180;44.788;10.366;2023-08-24T14:18:22;7.88;;;4.43;;
44476;SDS011;30180;44.788;10.366;2023-08-24T14:20:51;5.95;;;4.35;;
44476;SDS011;30180;44.788;10.366;2023-08-24T14:23:20;6.78;;;4.38;;
44476;SDS011;30180;44.788;10.366;2023-08-24T14:25:49;7.23;;;4.27;;
44476;SDS011;30180;44.788;10.366;2023-08-24T14:28:18;6.32;;;4.13;;
44476;SDS011;30180;44.788;10.366;2023-08-24T14:30:48;5.65;;;3.92;;
44476;SDS011;30180;44.788;10.366;2023-08-24T14:33:17;6.05;;;3.55;;
44476;SDS011;30180;44.788;10.366;2023-08-24T14:35:51;6.53;;;4.30;;
44476;SDS011;30180;44.788;10.366;2023-08-24T14:38:21;5.18;;;3.65;;
44476;SDS011;30180;44.788;10.366;2023-08-24T14:40:49;7.33;;;4.03;;
44476;SDS011;30180;44.788;10.366;2023-08-24T14:43:18;4.75;;;3.40;;
44476;SDS011;30180;44.788;10.366;2023-08-24T14:45:46;5.18;;;3.70;;
44476;SDS011;30180;44.788;10.366;2023-08-24T14:48:14;8.90;;;3.97;;
44476;SDS011;30180;44.788;10.366;2023-08-24T14:50:43;5.32;;;4.00;;
44476;SDS011;30180;44.788;10.366;2023-08-24T14:53:11;6.70;;;3.88;;
44476;SDS011;30180;44.788;10.366;2023-08-24T14:55:41;6.60;;;3.85;;
44476;SDS011;30180;44.788;10.366;2023-08-24T14:58:10;5.67;;;4.20;;